Time;durP1;ratioP1;P1;durP2;ratioP2;P2;SDS_P1;SDS_P2;PMS_P1;PMS_P2;Temp;Humidity;BMP_temperature;BMP_pressure;BME280_temperature;BME280_humidity;BME280_pressure;Samples;Min_cycle;Max_cycle;Signal;HPM_P1;HPM_P2
2022/10/24 00:00:07;;;;;;;4.18;3.22;;;13.20;99.90;;;;;;5006498;28;20104;-78
2022/10/24 00:02:33;;;;;;;2.38;1.90;;;13.30;99.90;;;;;;5006692;28;20049;-78
2022/10/24 00:04:58;;;;;;;5.88;2.65;;;13.30;99.90;;;;;;5005745;28;20050;-78
2022/10/24 00:07:24;;;;;;;4.35;2.30;;;13.30;99.90;;;;;;5006852;28;20130;-78
2022/10/24 00:09:50;;;;;;;2.45;1.55;;;13.30;99.90;;;;;;5009124;28;20120;-80
2022/10/24 00:12:17;;;;;;;2.58;1.95;;;13.20;99.90;;;;;;5011128;28;20038;-78
2022/10/24 00:14:43;;;;;;;2.55;1.90;;;13.20;99.90;;;;;;5009237;28;20120;-78
2022/10/24 00:17:08;;;;;;;4.00;2.03;;;13.20;99.90;;;;;;5009546;28;20125;-78
2022/10/24 00:19:34;;;;;;;3.85;1.95;;;13.20;99.90;;;;;;5008423;28;20061;-78
2022/10/24 00:21:59;;;;;;;2.17;1.90;;;13.20;99.90;;;;;;5010441;28;20095;-78
2022/10/24 00:24:25;;;;;;;1.60;1.48;;;13.30;99.90;;;;;;5010431;28;20111;-78
2022/10/24 00:26:51;;;;;;;1.95;1.63;;;13.20;99.90;;;;;;4989381;28;20393;-79
2022/10/24 00:29:17;;;;;;;2.08;1.55;;;13.20;99.90;;;;;;5001747;28;20424;-78
2022/10/24 00:31:42;;;;;;;2.78;2.25;;;13.20;99.90;;;;;;5010421;28;20200;-78
2022/10/24 00:34:08;;;;;;;1.92;1.75;;;13.20;99.90;;;;;;5009343;28;20046;-78
2022/10/24 00:36:34;;;;;;;4.53;1.83;;;13.20;99.90;;;;;;5010650;28;20409;-78
2022/10/24 00:39:00;;;;;;;1.95;1.50;;;13.30;99.90;;;;;;5008728;28;20396;-78
2022/10/24 00:41:36;;;;;;;2.50;1.45;;;13.30;99.90;;;;;;5010437;28;20038;-78
2022/10/24 00:44:16;;;;;;;2.80;1.95;;;13.30;99.90;;;;;;5009958;28;20073;-78
2022/10/24 00:46:45;;;;;;;9.00;2.00;;;13.30;99.90;;;;;;5010166;28;20042;-78
2022/10/24 00:49:16;;;;;;;2.78;1.77;;;13.30;99.90;;;;;;5009128;28;20050;-78
2022/10/24 00:51:45;;;;;;;4.25;2.22;;;13.30;99.90;;;;;;5009042;28;20089;-78
2022/10/24 00:54:12;;;;;;;1.65;1.42;;;13.30;99.90;;;;;;5009708;28;20128;-78
2022/10/24 00:56:46;;;;;;;2.78;1.92;;;13.30;99.90;;;;;;5009862;28;20069;-78
2022/10/24 00:59:13;;;;;;;6.80;2.35;;;13.30;99.90;;;;;;5009454;28;20084;-78
2022/10/24 01:01:40;;;;;;;2.28;1.40;;;13.30;99.90;;;;;;5009983;28;20038;-78
2022/10/24 01:04:08;;;;;;;5.55;1.98;;;13.30;99.90;;;;;;5008336;28;20050;-78
2022/10/24 01:06:39;;;;;;;4.28;2.22;;;13.30;99.90;;;;;;5009986;28;20127;-78
2022/10/24 01:09:23;;;;;;;5.47;2.13;;;13.30;99.90;;;;;;5008972;28;20141;-78
2022/10/24 01:12:15;;;;;;;2.45;1.80;;;13.20;99.90;;;;;;5008987;28;20069;-78
2022/10/24 01:15:00;;;;;;;5.78;1.92;;;13.20;99.90;;;;;;5008767;28;20399;-78
2022/10/24 01:17:40;;;;;;;4.82;2.33;;;13.20;99.90;;;;;;5009683;28;20041;-78
2022/10/24 01:20:21;;;;;;;5.28;1.52;;;13.30;99.90;;;;;;5006618;28;20038;-78
2022/10/24 01:23:04;;;;;;;2.88;2.30;;;13.20;99.90;;;;;;5008779;28;20081;-78
2022/10/24 01:25:43;;;;;;;3.00;2.33;;;13.30;99.90;;;;;;4999017;28;20046;-78
2022/10/24 01:28:23;;;;;;;3.05;2.10;;;13.40;99.90;;;;;;4989611;28;20047;-78
2022/10/24 01:30:58;;;;;;;2.40;2.20;;;13.40;99.90;;;;;;5004472;28;20519;-78
2022/10/24 01:33:36;;;;;;;2.25;2.00;;;13.40;99.90;;;;;;5007414;28;20053;-78
2022/10/24 01:36:21;;;;;;;7.35;2.70;;;13.50;99.90;;;;;;5007829;28;20061;-78
2022/10/24 01:39:02;;;;;;;5.90;1.90;;;13.50;99.90;;;;;;5009354;28;20038;-78
2022/10/24 01:41:30;;;;;;;3.33;1.73;;;13.50;99.90;;;;;;5009514;28;20064;-78
2022/10/24 01:44:01;;;;;;;11.90;2.30;;;13.50;99.90;;;;;;5008707;28;20045;-78
2022/10/24 01:46:50;;;;;;;3.88;2.20;;;13.60;99.90;;;;;;5009210;28;20084;-78
2022/10/24 01:49:18;;;;;;;4.82;2.65;;;13.60;99.90;;;;;;4992379;28;20096;-78
2022/10/24 01:51:49;;;;;;;3.38;2.63;;;13.60;99.90;;;;;;5009066;28;20073;-78
2022/10/24 01:54:14;;;;;;;4.95;2.55;;;13.60;99.90;;;;;;5007420;28;20033;-78
2022/10/24 01:56:40;;;;;;;4.82;2.15;;;13.60;99.90;;;;;;5008645;28;20042;-78
2022/10/24 01:59:27;;;;;;;1.98;1.65;;;13.70;99.90;;;;;;5008631;28;20038;-79
2022/10/24 02:02:04;;;;;;;8.13;2.20;;;13.60;99.90;;;;;;5008386;28;20554;-78
2022/10/24 02:04:33;;;;;;;2.92;2.17;;;13.60;99.90;;;;;;5007680;28;20065;-78
2022/10/24 02:07:03;;;;;;;4.50;2.50;;;13.70;99.90;;;;;;5008484;28;20444;-78
2022/10/24 02:09:31;;;;;;;4.82;1.73;;;13.70;99.90;;;;;;5007054;28;20488;-78
2022/10/24 02:11:58;;;;;;;1.98;1.77;;;13.70;99.90;;;;;;5008126;28;20041;-78
2022/10/24 02:14:37;;;;;;;3.30;2.80;;;13.70;99.90;;;;;;5008658;28;20050;-78
2022/10/24 02:17:04;;;;;;;3.70;2.55;;;13.70;99.90;;;;;;5006756;28;20087;-78
2022/10/24 02:19:31;;;;;;;4.80;2.72;;;13.70;99.90;;;;;;5007571;28;20116;-78
2022/10/24 02:22:16;;;;;;;8.18;2.40;;;13.70;99.90;;;;;;5008111;28;20153;-78
2022/10/24 02:25:09;;;;;;;4.20;3.00;;;13.70;99.90;;;;;;5005360;28;20408;-78
2022/10/24 02:27:40;;;;;;;3.65;2.42;;;13.80;99.90;;;;;;4988824;28;20062;-78
2022/10/24 02:30:12;;;;;;;7.90;3.33;;;13.70;99.90;;;;;;4988156;28;20085;-78
2022/10/24 02:32:40;;;;;;;;;;;13.80;99.90;;;;;;4992474;28;20112;-78
2022/10/24 02:35:08;;;;;;;3.33;2.58;;;13.80;99.90;;;;;;5007735;28;20342;-79
2022/10/24 02:37:38;;;;;;;3.17;2.08;;;13.80;99.90;;;;;;5008154;28;20033;-78
2022/10/24 02:40:08;;;;;;;5.25;2.78;;;13.80;99.90;;;;;;5006514;28;20096;-79
2022/10/24 02:42:34;;;;;;;6.70;3.28;;;13.80;99.90;;;;;;5006782;28;20047;-78
2022/10/24 02:45:01;;;;;;;5.95;2.90;;;13.80;99.90;;;;;;5006868;28;20261;-78
2022/10/24 02:47:28;;;;;;;6.85;2.80;;;13.80;99.90;;;;;;5007726;28;20052;-78
2022/10/24 02:49:54;;;;;;;5.43;3.13;;;13.70;99.90;;;;;;5005602;28;20053;-79
2022/10/24 02:52:22;;;;;;;4.68;2.63;;;13.80;99.90;;;;;;5008018;28;20112;-79
2022/10/24 02:54:48;;;;;;;5.72;3.20;;;13.80;99.90;;;;;;5008366;28;20061;-78
2022/10/24 02:57:14;;;;;;;5.25;2.33;;;13.80;99.90;;;;;;5007499;28;20042;-78
2022/10/24 02:59:39;;;;;;;5.55;2.97;;;13.70;99.90;;;;;;5007728;28;20046;-78
2022/10/24 03:02:05;;;;;;;5.20;2.30;;;13.70;99.90;;;;;;5007466;28;20064;-78
2022/10/24 03:04:31;;;;;;;3.53;2.72;;;13.70;99.90;;;;;;5006402;28;20145;-78
2022/10/24 03:06:57;;;;;;;6.07;2.63;;;13.70;99.90;;;;;;5007460;28;20045;-79
2022/10/24 03:09:22;;;;;;;4.97;2.40;;;13.70;99.90;;;;;;5007220;28;20107;-79
2022/10/24 03:11:48;;;;;;;5.88;2.50;;;13.70;99.90;;;;;;5007870;28;20126;-78
2022/10/24 03:14:14;;;;;;;7.80;3.05;;;13.80;99.90;;;;;;5006112;28;20432;-78
2022/10/24 03:16:39;;;;;;;4.53;2.78;;;13.70;99.90;;;;;;5006155;28;20484;-78
2022/10/24 03:19:05;;;;;;;5.30;2.78;;;13.70;99.90;;;;;;5006549;28;20096;-78
2022/10/24 03:21:30;;;;;;;4.00;2.40;;;13.80;99.90;;;;;;5007523;28;20516;-78
2022/10/24 03:23:56;;;;;;;10.55;2.83;;;13.80;99.90;;;;;;5007020;28;20052;-78
2022/10/24 03:26:22;;;;;;;2.75;2.50;;;13.80;99.90;;;;;;4989852;28;20047;-78
2022/10/24 03:28:47;;;;;;;5.97;2.10;;;13.70;99.90;;;;;;5006169;28;20089;-78
2022/10/24 03:31:13;;;;;;;5.32;2.50;;;13.80;99.90;;;;;;5005384;28;20053;-78
2022/10/24 03:33:39;;;;;;;6.90;2.22;;;13.80;99.90;;;;;;5006659;28;20453;-78
2022/10/24 03:36:05;;;;;;;4.22;2.38;;;13.80;99.90;;;;;;5005705;28;20096;-78
2022/10/24 03:38:31;;;;;;;7.75;3.28;;;13.80;99.90;;;;;;5007260;28;20049;-78
2022/10/24 03:40:56;;;;;;;3.88;2.42;;;13.80;99.90;;;;;;5006828;28;20030;-79
2022/10/24 03:43:22;;;;;;;2.78;1.77;;;13.80;99.90;;;;;;5005466;28;20133;-79
2022/10/24 03:45:48;;;;;;;4.57;2.03;;;13.80;99.90;;;;;;5006056;28;20120;-78
2022/10/24 03:48:13;;;;;;;2.55;1.70;;;13.90;99.90;;;;;;5005987;28;20046;-79
2022/10/24 03:50:39;;;;;;;5.80;2.30;;;13.80;99.90;;;;;;5006943;28;20530;-78
2022/10/24 03:53:04;;;;;;;1.70;1.50;;;13.80;99.90;;;;;;5005979;28;20061;-78
2022/10/24 03:55:30;;;;;;;4.15;2.33;;;13.80;99.90;;;;;;5006914;28;20073;-78
2022/10/24 03:57:56;;;;;;;4.10;1.95;;;13.80;99.90;;;;;;5006578;28;20038;-79
2022/10/24 04:00:22;;;;;;;2.20;1.83;;;13.80;99.90;;;;;;5005240;28;20162;-79
2022/10/24 04:02:50;;;;;;;4.55;2.88;;;13.80;99.90;;;;;;5006394;28;20514;-78
2022/10/24 04:05:16;;;;;;;3.45;1.65;;;13.70;99.90;;;;;;4989705;28;20052;-78
2022/10/24 04:07:42;;;;;;;4.10;2.22;;;13.70;99.90;;;;;;5007010;28;20103;-78
2022/10/24 04:10:07;;;;;;;5.00;1.65;;;13.70;99.90;;;;;;5006409;28;20046;-79
2022/10/24 04:12:33;;;;;;;4.65;1.80;;;13.60;99.90;;;;;;5006718;28;20404;-78
2022/10/24 04:14:59;;;;;;;3.90;2.35;;;13.60;99.90;;;;;;5006401;28;20143;-78
2022/10/24 04:17:24;;;;;;;2.78;1.70;;;13.60;99.90;;;;;;5005892;28;20041;-79
2022/10/24 04:19:50;;;;;;;7.50;2.20;;;13.50;99.90;;;;;;5006385;28;20042;-79
2022/10/24 04:22:16;;;;;;;4.13;1.45;;;13.50;99.90;;;;;;5007396;28;20067;-78
2022/10/24 04:24:41;;;;;;;2.05;1.48;;;13.50;99.90;;;;;;5002681;28;20053;-78
2022/10/24 04:27:07;;;;;;;6.10;2.33;;;13.50;99.90;;;;;;4988065;28;20108;-78
2022/10/24 04:29:33;;;;;;;6.15;2.13;;;13.50;99.90;;;;;;5006280;28;20254;-78
2022/10/24 04:31:59;;;;;;;4.70;2.70;;;13.50;99.90;;;;;;5005038;28;20100;-78
2022/10/24 04:34:24;;;;;;;4.50;1.63;;;13.50;99.90;;;;;;5004718;28;20104;-78
2022/10/24 04:36:50;;;;;;;7.85;1.92;;;13.40;99.90;;;;;;5005260;28;20042;-80
2022/10/24 04:39:16;;;;;;;3.85;2.38;;;13.40;99.90;;;;;;5006665;28;20046;-78
2022/10/24 04:41:41;;;;;;;3.10;2.08;;;13.40;99.90;;;;;;5006784;28;20033;-79
2022/10/24 04:44:07;;;;;;;3.60;2.28;;;13.40;99.90;;;;;;4989822;28;20137;-79
2022/10/24 04:46:32;;;;;;;11.93;2.40;;;13.40;99.90;;;;;;4986850;28;20046;-79
2022/10/24 04:48:58;;;;;;;2.40;1.40;;;13.40;99.90;;;;;;4984486;28;20038;-78
2022/10/24 04:51:24;;;;;;;4.88;1.70;;;13.40;99.90;;;;;;4986434;28;20441;-79
2022/10/24 04:53:50;;;;;;;3.53;2.05;;;13.40;99.90;;;;;;4988534;28;20030;-80
2022/10/24 04:56:16;;;;;;;12.52;2.40;;;13.40;99.90;;;;;;5010256;28;20042;-79
2022/10/24 04:58:42;;;;;;;1.35;1.23;;;13.40;99.90;;;;;;5009420;28;20084;-78
2022/10/24 05:01:08;;;;;;;2.95;2.00;;;13.40;99.90;;;;;;5009708;28;20076;-79
2022/10/24 05:03:33;;;;;;;2.30;1.83;;;13.50;99.90;;;;;;5009196;28;20050;-79
2022/10/24 05:05:59;;;;;;;3.40;1.90;;;13.50;99.90;;;;;;5009786;28;20088;-79
2022/10/24 05:08:25;;;;;;;7.63;1.40;;;13.50;99.90;;;;;;5008496;28;20049;-79
2022/10/24 05:10:50;;;;;;;2.00;1.55;;;13.60;99.90;;;;;;5007974;28;20403;-80
2022/10/24 05:13:16;;;;;;;2.67;1.52;;;13.60;99.90;;;;;;5005545;28;20037;-78
2022/10/24 05:15:42;;;;;;;7.43;1.60;;;13.70;99.90;;;;;;5000804;28;20480;-78
2022/10/24 05:18:08;;;;;;;2.20;1.45;;;13.70;99.90;;;;;;5007336;28;20049;-78
2022/10/24 05:20:34;;;;;;;3.75;1.55;;;13.70;99.90;;;;;;5009453;28;20046;-78
2022/10/24 05:22:59;;;;;;;2.08;1.58;;;13.80;99.90;;;;;;5008142;28;20100;-79
2022/10/24 05:25:25;;;;;;;3.10;1.58;;;13.80;99.90;;;;;;5001745;28;20042;-79
2022/10/24 05:27:50;;;;;;;3.50;1.30;;;13.80;99.90;;;;;;4994681;28;20126;-79
2022/10/24 05:30:16;;;;;;;4.90;1.33;;;13.80;99.90;;;;;;4998068;28;20120;-79
2022/10/24 05:32:42;;;;;;;3.80;1.58;;;13.80;99.90;;;;;;4988658;28;20066;-78
2022/10/24 05:35:08;;;;;;;5.10;1.45;;;13.80;99.90;;;;;;4994905;28;20108;-78
2022/10/24 05:37:33;;;;;;;2.08;1.67;;;13.80;99.90;;;;;;4983080;28;20472;-77
2022/10/24 05:39:59;;;;;;;5.05;1.77;;;13.80;99.90;;;;;;5006255;28;20112;-78
2022/10/24 05:42:24;;;;;;;7.05;1.85;;;13.80;99.90;;;;;;5007691;28;20124;-78
2022/10/24 05:44:50;;;;;;;4.65;2.15;;;13.80;99.90;;;;;;4993112;28;20225;-78
2022/10/24 05:47:16;;;;;;;3.63;1.45;;;13.80;99.90;;;;;;4989222;28;20132;-77
2022/10/24 05:49:41;;;;;;;1.48;0.95;;;13.90;99.90;;;;;;4989008;28;20449;-77
2022/10/24 05:52:07;;;;;;;12.75;2.83;;;13.90;99.90;;;;;;4988685;28;20048;-78
2022/10/24 05:54:32;;;;;;;2.05;1.55;;;13.90;99.90;;;;;;4989002;28;20050;-77
2022/10/24 05:56:58;;;;;;;1.73;1.40;;;13.80;99.90;;;;;;5008016;28;20056;-78
2022/10/24 05:59:23;;;;;;;6.50;1.70;;;13.80;99.90;;;;;;5006739;28;20038;-78
2022/10/24 06:01:49;;;;;;;1.65;1.52;;;13.80;99.90;;;;;;5008338;28;20042;-77
2022/10/24 06:04:14;;;;;;;2.97;1.92;;;13.80;99.90;;;;;;5007768;28;20125;-78
2022/10/24 06:06:42;;;;;;;0.98;0.90;;;13.70;99.90;;;;;;5008051;28;20057;-77
2022/10/24 06:09:08;;;;;;;2.55;1.52;;;13.70;99.90;;;;;;5007599;28;20527;-78
2022/10/24 06:11:34;;;;;;;2.90;1.33;;;13.70;99.90;;;;;;5006823;28;20178;-78
2022/10/24 06:14:00;;;;;;;2.75;1.70;;;13.70;99.90;;;;;;5008173;28;20069;-77
2022/10/24 06:16:26;;;;;;;11.75;1.92;;;13.70;99.90;;;;;;5008226;28;20049;-78
2022/10/24 06:18:52;;;;;;;1.63;1.50;;;13.70;99.90;;;;;;5006735;28;20132;-78
2022/10/24 06:21:18;;;;;;;2.97;1.40;;;13.70;99.90;;;;;;5008666;28;20070;-78
2022/10/24 06:23:44;;;;;;;3.50;1.60;;;13.70;99.90;;;;;;5007950;28;20443;-78
2022/10/24 06:26:10;;;;;;;5.75;1.48;;;13.70;99.90;;;;;;4992655;28;20128;-77
2022/10/24 06:28:37;;;;;;;5.63;1.73;;;13.70;99.90;;;;;;4988237;28;20038;-78
2022/10/24 06:31:03;;;;;;;2.33;1.42;;;13.70;99.90;;;;;;4987607;28;20041;-78
2022/10/24 06:33:30;;;;;;;2.10;1.58;;;13.70;99.90;;;;;;4985781;28;20046;-77
2022/10/24 06:35:59;;;;;;;4.20;1.00;;;13.80;99.90;;;;;;4987690;28;20373;-78
2022/10/24 06:38:25;;;;;;;8.60;1.85;;;13.80;99.90;;;;;;4995676;28;20069;-78
2022/10/24 06:40:50;;;;;;;6.47;2.08;;;13.80;99.90;;;;;;5005623;28;20443;-78
2022/10/24 06:43:18;;;;;;;5.07;1.45;;;13.80;99.90;;;;;;5007902;28;20739;-77
2022/10/24 06:45:44;;;;;;;3.17;1.33;;;13.80;99.90;;;;;;5005606;28;20563;-78
2022/10/24 06:48:10;;;;;;;4.57;1.45;;;13.80;99.90;;;;;;5006215;28;20137;-78
2022/10/24 06:50:39;;;;;;;3.30;1.70;;;13.80;99.90;;;;;;5002089;28;20109;-78
2022/10/24 06:53:05;;;;;;;1.33;1.23;;;13.80;99.90;;;;;;5006376;28;20430;-77
2022/10/24 06:55:31;;;;;;;3.22;1.77;;;13.90;99.90;;;;;;4996720;28;20048;-78
2022/10/24 06:57:57;;;;;;;5.63;2.25;;;13.90;99.90;;;;;;5006190;28;20046;-77
2022/10/24 07:00:23;;;;;;;5.75;1.90;;;13.90;99.90;;;;;;5002086;28;20484;-78
2022/10/24 07:02:48;;;;;;;7.40;1.73;;;13.90;99.90;;;;;;4993965;28;20396;-78
2022/10/24 07:05:14;;;;;;;3.55;1.35;;;13.90;99.90;;;;;;4987215;28;20051;-77
2022/10/24 07:07:41;;;;;;;6.53;2.17;;;13.90;99.90;;;;;;4987335;28;20425;-78
2022/10/24 07:10:09;;;;;;;7.63;1.73;;;14.00;99.90;;;;;;5000686;28;20133;-78
2022/10/24 07:12:34;;;;;;;2.17;1.02;;;14.00;99.90;;;;;;4986716;28;20038;-78
2022/10/24 07:15:01;;;;;;;4.40;1.48;;;14.00;99.90;;;;;;5004537;28;20408;-77
2022/10/24 07:17:28;;;;;;;3.88;1.40;;;14.00;99.90;;;;;;4982892;28;20049;-78
2022/10/24 07:19:55;;;;;;;4.72;1.60;;;14.00;99.90;;;;;;4997146;28;20030;-78
2022/10/24 07:22:21;;;;;;;3.08;1.25;;;14.10;99.90;;;;;;4997305;28;20045;-78
2022/10/24 07:24:51;;;;;;;2.60;1.75;;;14.10;99.90;;;;;;4999714;28;20088;-78
2022/10/24 07:27:17;;;;;;;3.08;1.65;;;14.10;99.90;;;;;;4997915;28;20042;-78
2022/10/24 07:29:43;;;;;;;5.35;1.42;;;14.10;99.90;;;;;;5006999;28;20038;-78
2022/10/24 07:32:09;;;;;;;2.83;1.17;;;14.10;99.90;;;;;;4966556;28;20042;-77
2022/10/24 07:34:35;;;;;;;6.78;1.73;;;14.20;99.90;;;;;;4971308;28;20497;-78
2022/10/24 07:37:02;;;;;;;5.03;1.60;;;14.20;99.90;;;;;;4991714;28;20046;-77
2022/10/24 07:39:28;;;;;;;2.85;1.50;;;14.20;99.90;;;;;;4987353;28;20169;-78
2022/10/24 07:41:54;;;;;;;3.40;1.38;;;14.20;99.90;;;;;;4986876;28;20511;-78
2022/10/24 07:44:19;;;;;;;5.90;1.83;;;14.20;99.90;;;;;;4990961;28;20083;-79
2022/10/24 07:46:45;;;;;;;3.00;1.65;;;14.30;99.90;;;;;;5005921;28;20038;-78
2022/10/24 07:49:10;;;;;;;2.50;1.83;;;14.20;99.90;;;;;;4991978;28;20452;-78
2022/10/24 07:51:36;;;;;;;13.60;1.50;;;14.30;99.90;;;;;;5000999;28;20069;-78
2022/10/24 07:54:02;;;;;;;1.60;1.48;;;14.30;99.90;;;;;;5006544;28;20494;-78
2022/10/24 07:56:27;;;;;;;3.40;1.50;;;14.30;99.90;;;;;;4999748;28;20107;-78
2022/10/24 07:58:54;;;;;;;3.45;1.08;;;14.40;99.90;;;;;;4998209;28;20058;-78
2022/10/24 08:01:23;;;;;;;3.75;1.90;;;14.40;99.90;;;;;;4988817;28;20045;-79
2022/10/24 08:03:49;;;;;;;8.02;1.80;;;14.40;99.90;;;;;;4986743;28;20082;-79
2022/10/24 08:06:19;;;;;;;5.80;1.40;;;14.50;99.90;;;;;;5000272;28;20139;-77
2022/10/24 08:08:45;;;;;;;3.25;1.05;;;14.50;99.90;;;;;;4986310;28;20051;-77
2022/10/24 08:11:16;;;;;;;1.63;1.52;;;14.50;99.90;;;;;;4985437;28;20092;-78
2022/10/24 08:13:42;;;;;;;1.77;1.40;;;14.60;99.90;;;;;;4998135;28;20034;-78
2022/10/24 08:16:10;;;;;;;4.13;1.40;;;14.50;99.90;;;;;;4967167;28;20047;-77
2022/10/24 08:18:36;;;;;;;3.95;1.80;;;14.60;99.90;;;;;;4994648;28;20500;-76
2022/10/24 08:21:04;;;;;;;6.38;1.55;;;14.60;99.90;;;;;;5005865;28;20034;-79
2022/10/24 08:23:32;;;;;;;2.80;1.35;;;14.60;99.90;;;;;;5006189;28;20479;-79
2022/10/24 08:25:57;;;;;;;1.35;0.95;;;14.60;99.90;;;;;;5000574;28;20056;-79
2022/10/24 08:28:23;;;;;;;6.20;1.80;;;14.60;99.90;;;;;;5006028;28;20046;-79
2022/10/24 08:31:00;;;;;;;2.80;1.00;;;14.60;99.90;;;;;;5009762;28;20077;-78
2022/10/24 08:33:26;;;;;;;2.70;1.48;;;14.60;99.90;;;;;;5008744;28;20037;-79
2022/10/24 08:36:00;;;;;;;3.10;1.45;;;14.70;99.90;;;;;;5009602;28;20034;-79
2022/10/24 08:38:27;;;;;;;4.05;1.15;;;14.70;99.90;;;;;;5008629;28;20045;-79
2022/10/24 08:40:52;;;;;;;4.03;1.25;;;14.70;99.90;;;;;;5009473;28;20042;-79
2022/10/24 08:43:19;;;;;;;5.53;1.13;;;14.70;99.90;;;;;;5009579;28;20075;-79
2022/10/24 08:46:11;;;;;;;4.47;1.67;;;14.70;99.90;;;;;;5009835;28;20042;-79
2022/10/24 08:48:50;;;;;;;2.35;1.40;;;14.80;99.90;;;;;;5008439;28;20316;-78
2022/10/24 08:51:40;;;;;;;7.43;1.73;;;14.80;99.90;;;;;;5008495;28;20104;-79
2022/10/24 08:54:12;;;;;;;10.40;2.38;;;14.80;99.90;;;;;;5009080;28;20092;-79
2022/10/24 08:56:38;;;;;;;1.85;1.02;;;14.80;99.90;;;;;;5009535;28;20084;-79
2022/10/24 08:59:05;;;;;;;2.92;1.50;;;14.80;99.90;;;;;;5009056;28;20045;-79
2022/10/24 09:02:03;;;;;;;12.30;2.08;;;14.80;99.90;;;;;;5008531;28;20334;-79
2022/10/24 09:04:36;;;;;;;4.13;1.92;;;14.80;99.90;;;;;;4990028;28;20599;-78
2022/10/24 09:07:03;;;;;;;3.95;1.40;;;14.80;99.90;;;;;;5009039;28;20117;-79
2022/10/24 09:09:36;;;;;;;1.55;1.25;;;14.90;99.90;;;;;;5009111;28;20046;-79
2022/10/24 09:12:13;;;;;;;4.38;1.50;;;14.90;99.90;;;;;;5001822;28;20138;-79
2022/10/24 09:14:41;;;;;;;3.75;1.45;;;14.90;99.90;;;;;;4989389;28;20030;-79
2022/10/24 09:17:19;;;;;;;4.60;1.50;;;14.80;99.90;;;;;;4988813;28;20042;-79
2022/10/24 09:19:59;;;;;;;7.80;1.88;;;14.80;99.90;;;;;;4992599;28;20048;-78
2022/10/24 09:22:28;;;;;;;2.17;1.00;;;14.90;99.90;;;;;;5007470;28;20106;-78
2022/10/24 09:25:11;;;;;;;3.40;1.17;;;14.90;99.90;;;;;;5004101;28;20031;-79
2022/10/24 09:27:39;;;;;;;3.58;1.58;;;14.90;99.90;;;;;;4989168;28;20043;-79
2022/10/24 09:30:07;;;;;;;4.70;1.98;;;15.00;99.90;;;;;;4995958;28;20428;-79
2022/10/24 09:32:35;;;;;;;2.28;1.67;;;15.00;99.90;;;;;;5006682;28;20072;-78
2022/10/24 09:35:05;;;;;;;5.93;1.48;;;15.10;99.90;;;;;;5008167;28;20045;-79
2022/10/24 09:37:41;;;;;;;3.88;2.55;;;15.10;99.90;;;;;;4989406;28;20038;-79
2022/10/24 09:40:18;;;;;;;5.50;1.38;;;15.20;99.90;;;;;;5007497;28;20038;-80
2022/10/24 09:42:49;;;;;;;2.05;1.25;;;15.20;99.90;;;;;;5008655;28;20669;-79
2022/10/24 09:45:32;;;;;;;2.33;1.95;;;15.30;99.90;;;;;;5008823;28;20485;-79
2022/10/24 09:48:00;;;;;;;3.05;1.48;;;15.30;99.90;;;;;;5005856;28;20085;-79
2022/10/24 09:50:27;;;;;;;3.10;1.70;;;15.30;99.90;;;;;;5007561;28;20042;-78
2022/10/24 09:52:57;;;;;;;3.67;2.13;;;15.30;99.90;;;;;;5006238;28;20034;-79
2022/10/24 09:55:27;;;;;;;2.55;1.83;;;15.20;99.90;;;;;;5008069;28;20099;-79
2022/10/24 09:57:59;;;;;;;3.85;2.03;;;15.10;99.90;;;;;;5007748;28;20046;-77
2022/10/24 10:00:28;;;;;;;3.15;1.30;;;15.10;99.90;;;;;;4983939;28;20392;-79
2022/10/24 10:03:00;;;;;;;7.20;2.72;;;15.10;99.90;;;;;;5004795;28;20050;-77
2022/10/24 10:05:47;;;;;;;7.47;1.92;;;15.10;99.90;;;;;;4988699;28;20053;-78
2022/10/24 10:08:23;;;;;;;5.47;1.90;;;15.10;99.90;;;;;;4967062;28;20078;-78
2022/10/24 10:11:08;;;;;;;5.55;1.77;;;15.10;99.90;;;;;;4988535;28;20072;-78
2022/10/24 10:13:44;;;;;;;7.32;1.65;;;15.10;99.90;;;;;;5002603;28;20192;-79
2022/10/24 10:16:24;;;;;;;4.30;2.35;;;15.10;99.90;;;;;;4994542;28;20045;-78
2022/10/24 10:18:59;;;;;;;4.07;1.88;;;15.20;99.90;;;;;;5006042;28;20046;-80
2022/10/24 10:21:25;;;;;;;15.05;2.05;;;15.30;99.90;;;;;;5007530;28;20488;-78
2022/10/24 10:23:52;;;;;;;16.67;2.30;;;15.30;99.90;;;;;;5007278;28;20041;-78
2022/10/24 10:26:40;;;;;;;5.57;2.58;;;15.40;99.90;;;;;;4992559;28;20465;-79
2022/10/24 10:29:21;;;;;;;5.63;2.67;;;15.40;99.90;;;;;;4987179;28;20082;-78
2022/10/24 10:32:15;;;;;;;8.10;2.80;;;15.40;99.90;;;;;;5005195;28;20046;-78
2022/10/24 10:34:51;;;;;;;11.05;2.35;;;15.50;99.90;;;;;;5006335;28;20037;-78
2022/10/24 10:37:30;;;;;;;10.75;3.47;;;15.50;99.90;;;;;;5006593;28;20650;-78
2022/10/24 10:40:18;;;;;;;9.23;2.10;;;15.60;99.90;;;;;;5005667;28;20084;-79
2022/10/24 10:42:58;;;;;;;7.70;2.70;;;15.60;99.90;;;;;;4989761;28;20046;-78
2022/10/24 10:45:39;;;;;;;8.85;2.35;;;15.60;99.90;;;;;;5005833;28;20072;-79
2022/10/24 10:48:23;;;;;;;7.38;2.17;;;15.60;99.90;;;;;;5006258;28;20072;-78
2022/10/24 10:51:21;;;;;;;13.30;3.47;;;15.60;99.90;;;;;;4991694;28;20042;-79
2022/10/24 10:54:05;;;;;;;4.50;2.15;;;15.60;99.90;;;;;;4975520;28;20058;-80
2022/10/24 10:56:36;;;;;;;3.47;2.35;;;15.50;99.90;;;;;;4997258;28;20493;-78
2022/10/24 10:59:43;;;;;;;7.25;2.65;;;15.50;99.90;;;;;;5006568;28;20052;-79
2022/10/24 11:02:32;;;;;;;9.23;2.17;;;15.40;99.90;;;;;;5005955;28;20050;-79
2022/10/24 11:05:18;;;;;;;7.68;2.88;;;15.40;99.90;;;;;;5005645;28;20057;-79
2022/10/24 11:08:12;;;;;;;7.43;2.50;;;15.40;99.90;;;;;;5006198;28;20133;-79
2022/10/24 11:10:47;;;;;;;11.05;3.58;;;15.30;99.90;;;;;;4965257;28;20121;-79
2022/10/24 11:13:23;;;;;;;9.68;2.75;;;15.30;99.90;;;;;;5006042;28;20034;-79
2022/10/24 11:15:53;;;;;;;13.35;2.45;;;15.30;99.90;;;;;;5006868;28;20040;-81
2022/10/24 11:18:36;;;;;;;8.90;2.65;;;15.30;99.90;;;;;;5004529;28;20045;-82
2022/10/24 11:21:06;;;;;;;9.82;3.40;;;15.40;99.90;;;;;;5004854;28;20045;-78
2022/10/24 11:23:40;;;;;;;7.47;2.65;;;15.40;99.90;;;;;;5006307;28;20045;-80
2022/10/24 11:26:17;;;;;;;7.38;2.13;;;15.40;99.90;;;;;;4991357;28;20371;-81
2022/10/24 11:29:00;;;;;;;12.07;3.20;;;15.40;99.90;;;;;;5003201;28;20492;-80
2022/10/24 11:31:37;;;;;;;3.20;1.75;;;15.40;99.90;;;;;;4987518;28;20077;-81
2022/10/24 11:34:14;;;;;;;6.95;2.42;;;15.40;99.90;;;;;;5006049;28;20488;-78
2022/10/24 11:36:48;;;;;;;8.90;2.40;;;15.40;99.90;;;;;;5005039;28;20053;-77
2022/10/24 11:39:31;;;;;;;5.78;2.20;;;15.30;99.90;;;;;;5006014;28;20404;-77
2022/10/24 11:42:14;;;;;;;3.30;1.80;;;15.20;99.90;;;;;;5004754;28;20157;-78
2022/10/24 11:45:03;;;;;;;6.78;2.42;;;15.30;99.90;;;;;;5006203;28;20096;-78
2022/10/24 11:47:37;;;;;;;4.05;2.15;;;15.20;99.90;;;;;;5002654;28;20118;-77
2022/10/24 11:50:34;;;;;;;5.15;1.40;;;15.20;99.90;;;;;;5004583;28;20046;-78
2022/10/24 11:53:21;;;;;;;3.85;1.48;;;15.20;99.90;;;;;;5000606;28;20084;-76
2022/10/24 11:55:55;;;;;;;5.82;2.08;;;15.20;99.90;;;;;;5005110;28;20065;-79
2022/10/24 11:58:23;;;;;;;5.25;2.20;;;15.30;99.90;;;;;;5006119;28;20045;-80
2022/10/24 12:01:20;;;;;;;3.03;1.52;;;15.40;99.90;;;;;;5006218;28;20037;-78
2022/10/24 12:04:16;;;;;;;8.75;1.85;;;15.50;99.90;;;;;;4991305;28;20054;-80
2022/10/24 12:07:03;;;;;;;4.28;2.25;;;15.50;99.90;;;;;;5000494;28;20046;-81
2022/10/24 12:09:37;;;;;;;9.55;2.22;;;15.50;99.90;;;;;;5005799;28;20047;-79
2022/10/24 12:12:24;;;;;;;7.82;1.63;;;15.50;99.90;;;;;;4989259;28;20061;-81
2022/10/24 12:15:20;;;;;;;5.63;2.38;;;15.50;99.90;;;;;;4990337;28;20054;-80
2022/10/24 12:18:10;;;;;;;2.30;1.42;;;15.40;99.90;;;;;;4989709;28;20122;-81
2022/10/24 12:20:37;;;;;;;3.17;1.33;;;15.30;99.90;;;;;;5007993;28;20758;-81
2022/10/24 12:23:04;;;;;;;8.25;2.15;;;15.30;99.90;;;;;;4998804;28;20065;-82
2022/10/24 12:25:34;;;;;;;8.40;1.75;;;15.20;99.90;;;;;;4991933;28;20051;-81
2022/10/24 12:28:24;;;;;;;5.63;1.88;;;15.10;99.90;;;;;;4989528;28;20547;-79
2022/10/24 12:31:12;;;;;;;8.13;2.30;;;15.10;99.90;;;;;;4993811;28;20078;-78
2022/10/24 12:33:38;;;;;;;4.20;1.60;;;15.10;99.90;;;;;;4996865;28;20057;-79
2022/10/24 12:36:04;;;;;;;2.10;1.88;;;15.10;99.90;;;;;;5008862;28;20046;-79
2022/10/24 12:38:29;;;;;;;5.05;2.05;;;15.10;99.90;;;;;;4998699;28;20136;-80
2022/10/24 12:41:05;;;;;;;7.65;2.15;;;15.10;99.90;;;;;;5007467;28;20369;-78
2022/10/24 12:43:36;;;;;;;2.90;1.48;;;15.20;99.90;;;;;;5008053;28;20034;-81
2022/10/24 12:46:14;;;;;;;4.47;1.50;;;15.20;99.90;;;;;;5007939;28;20041;-79
2022/10/24 12:49:08;;;;;;;2.05;1.25;;;15.30;99.90;;;;;;5009108;28;20045;-79
2022/10/24 12:51:36;;;;;;;5.68;1.30;;;15.30;99.90;;;;;;4975128;28;20046;-79
2022/10/24 12:54:10;;;;;;;5.13;1.40;;;15.40;99.90;;;;;;5007435;28;20535;-77
2022/10/24 12:56:58;;;;;;;13.77;2.35;;;15.40;99.90;;;;;;5005942;28;20080;-78
2022/10/24 12:59:30;;;;;;;1.40;1.10;;;15.50;99.90;;;;;;5008576;28;20857;-79
2022/10/24 13:02:14;;;;;;;9.20;1.83;;;15.50;99.90;;;;;;5007281;28;20041;-83
2022/10/24 13:04:57;;;;;;;6.60;1.67;;;15.50;99.90;;;;;;5003366;28;20147;-80